createdAt,value
2018-09-27T00:00:48.095Z,0
2018-09-27T00:01:57.953Z,0
2018-09-27T00:03:07.867Z,0
2018-09-27T00:04:17.173Z,0
2018-09-27T00:05:26.481Z,0
2018-09-27T00:06:36.333Z,0
2018-09-27T00:07:45.914Z,0
2018-09-27T00:08:56.092Z,0
2018-09-27T00:10:05.951Z,0
2018-09-27T00:11:15.815Z,0
2018-09-27T00:12:25.395Z,0
2018-09-27T00:13:35.523Z,0
2018-09-27T00:14:45.673Z,0
2018-09-27T00:15:55.534Z,0
2018-09-27T00:17:05.396Z,0
2018-09-27T00:18:14.985Z,0
2018-09-27T00:19:25.174Z,0
2018-09-27T00:20:37.116Z,0
2018-09-27T00:21:47.253Z,0
2018-09-27T00:22:57.404Z,0
2018-09-27T00:24:06.714Z,0
2018-09-27T00:25:16.022Z,0
2018-09-27T00:26:26.154Z,0
2018-09-27T00:27:36.014Z,0
2018-09-27T00:28:45.871Z,0
2018-09-27T00:29:56.042Z,0
2018-09-27T00:31:05.625Z,0
2018-09-27T00:32:15.490Z,0
2018-09-27T00:33:25.628Z,0
2018-09-27T00:34:35.210Z,0
2018-09-27T00:35:45.066Z,0
2018-09-27T00:36:55.197Z,0
2018-09-27T00:38:05.330Z,0
2018-09-27T00:39:14.635Z,0
2018-09-27T00:40:24.776Z,0
2018-09-27T00:41:34.911Z,0
2018-09-27T00:42:45.047Z,0
2018-09-27T00:43:54.358Z,0
2018-09-27T00:45:04.213Z,0
2018-09-27T00:46:13.789Z,0
2018-09-27T00:47:23.643Z,0
2018-09-27T00:48:33.773Z,0
2018-09-27T00:49:43.638Z,0
2018-09-27T00:50:53.817Z,0
2018-09-27T00:52:03.670Z,0
2018-09-27T00:53:13.528Z,0
2018-09-27T00:54:23.380Z,0
2018-09-27T00:55:33.563Z,0
2018-09-27T00:56:43.691Z,0
2018-09-27T00:57:53.558Z,0
2018-09-27T00:59:03.688Z,0
2018-09-27T01:00:13.820Z,0
2018-09-27T01:01:23.725Z,0
2018-09-27T01:02:33.303Z,0
2018-09-27T01:03:43.430Z,0
2018-09-27T01:04:53.288Z,0
2018-09-27T01:06:03.420Z,0
2018-09-27T01:07:13.326Z,0
2018-09-27T01:08:23.183Z,0
2018-09-27T01:09:33.042Z,0
2018-09-27T01:10:43.176Z,0
2018-09-27T01:11:53.031Z,0
2018-09-27T01:13:03.156Z,0
2018-09-27T01:14:13.287Z,0
2018-09-27T01:15:23.142Z,0
2018-09-27T01:16:33.000Z,0
2018-09-27T01:17:43.136Z,0
2018-09-27T01:18:53.286Z,0
2018-09-27T01:20:03.149Z,0
2018-09-27T01:21:13.281Z,0
2018-09-27T01:22:23.148Z,0
2018-09-27T01:23:33.287Z,0
2018-09-27T01:24:43.193Z,0
2018-09-27T01:25:53.322Z,0
2018-09-27T01:27:03.455Z,0
2018-09-27T01:28:13.310Z,0
2018-09-27T01:29:22.913Z,0
2018-09-27T01:30:33.161Z,0
2018-09-27T01:31:43.024Z,0
2018-09-27T01:32:53.159Z,0
2018-09-27T01:34:03.022Z,0
2018-09-27T01:35:13.151Z,0
2018-09-27T01:36:23.338Z,0
2018-09-27T01:37:33.473Z,0
2018-09-27T01:38:43.329Z,0
2018-09-27T01:39:53.458Z,0
2018-09-27T01:41:03.592Z,0
2018-09-27T01:42:13.235Z,0
2018-09-27T01:43:23.365Z,0
2018-09-27T01:44:33.242Z,0
2018-09-27T01:45:43.383Z,0
2018-09-27T01:46:53.520Z,0
2018-09-27T01:48:03.701Z,0
2018-09-27T01:49:13.280Z,0
2018-09-27T01:50:23.431Z,0
2018-09-27T01:51:32.743Z,0
2018-09-27T01:52:42.870Z,0
2018-09-27T01:53:52.179Z,0
2018-09-27T01:55:01.772Z,0
2018-09-27T01:56:11.906Z,0
2018-09-27T01:57:21.487Z,0
2018-09-27T01:58:31.614Z,0
2018-09-27T01:59:41.748Z,0
2018-09-27T02:00:51.883Z,0
2018-09-27T02:02:02.058Z,0
2018-09-27T02:03:11.644Z,0
2018-09-27T02:04:21.503Z,0
2018-09-27T02:05:31.692Z,0
2018-09-27T02:06:41.828Z,0
2018-09-27T02:07:51.964Z,0
2018-09-27T02:09:02.094Z,0
2018-09-27T02:10:11.953Z,0
2018-09-27T02:11:22.081Z,0
2018-09-27T02:12:32.209Z,0
2018-09-27T02:13:42.061Z,0
2018-09-27T02:14:51.915Z,0
2018-09-27T02:16:02.046Z,0
2018-09-27T02:17:11.352Z,0
2018-09-27T02:18:21.487Z,0
2018-09-27T02:19:31.660Z,0
2018-09-27T02:20:41.511Z,0
2018-09-27T02:21:51.643Z,0
2018-09-27T02:23:01.550Z,0
2018-09-27T02:24:11.412Z,0
2018-09-27T02:25:21.544Z,0
2018-09-27T02:26:31.405Z,0
2018-09-27T02:27:41.536Z,0
2018-09-27T02:28:51.397Z,0
2018-09-27T02:30:01.252Z,0
2018-09-27T02:31:10.837Z,0
2018-09-27T02:32:21.016Z,0
2018-09-27T02:33:30.882Z,0
2018-09-27T02:34:45.268Z,0
2018-09-27T02:35:55.400Z,0
2018-09-27T02:37:05.544Z,0
2018-09-27T02:38:15.685Z,0
2018-09-27T02:39:25.847Z,0
2018-09-27T02:40:36.034Z,0
2018-09-27T02:41:45.893Z,0
2018-09-27T02:42:55.820Z,0
2018-09-27T02:44:05.951Z,0
2018-09-27T02:45:16.092Z,0
2018-09-27T02:46:26.229Z,0
2018-09-27T02:47:36.362Z,0
2018-09-27T02:48:45.948Z,0
2018-09-27T02:49:55.532Z,0
2018-09-27T02:51:05.391Z,0
2018-09-27T02:52:15.515Z,0
2018-09-27T02:53:25.648Z,0
2018-09-27T02:54:35.779Z,0
2018-09-27T02:55:45.931Z,0
2018-09-27T02:56:56.070Z,0
2018-09-27T02:58:05.928Z,0
2018-09-27T02:59:15.791Z,0
2018-09-27T03:00:25.925Z,0
2018-09-27T03:01:35.792Z,0
2018-09-27T03:02:45.920Z,0
2018-09-27T03:03:56.050Z,0
2018-09-27T03:05:05.911Z,0
2018-09-27T03:06:15.772Z,0
2018-09-27T03:07:25.911Z,0
2018-09-27T03:08:36.051Z,0
2018-09-27T03:09:45.964Z,0
2018-09-27T03:10:55.566Z,0
2018-09-27T03:12:05.752Z,0
2018-09-27T03:13:15.623Z,0
2018-09-27T03:14:25.758Z,0
2018-09-27T03:15:35.933Z,0
2018-09-27T03:16:46.070Z,0
2018-09-27T03:17:56.210Z,0
2018-09-27T03:19:06.068Z,0
2018-09-27T03:20:15.656Z,0
2018-09-27T03:21:25.512Z,0
2018-09-27T03:22:35.097Z,0
2018-09-27T03:23:45.225Z,0
2018-09-27T03:24:55.414Z,0
2018-09-27T03:26:05.552Z,0
2018-09-27T03:27:15.184Z,0
2018-09-27T03:28:24.490Z,0
2018-09-27T03:29:34.626Z,0
2018-09-27T03:30:44.692Z,0
2018-09-27T03:31:54.783Z,0
2018-09-27T03:33:04.945Z,0
2018-09-27T03:34:14.992Z,0
2018-09-27T03:35:25.033Z,0
2018-09-27T03:36:35.106Z,0
2018-09-27T03:37:45.240Z,0
2018-09-27T03:38:55.421Z,0
2018-09-27T03:40:05.400Z,0
2018-09-27T03:41:15.408Z,0
2018-09-27T03:42:25.265Z,0
2018-09-27T03:43:35.396Z,0
2018-09-27T03:44:45.587Z,0
2018-09-27T03:45:55.455Z,0
2018-09-27T03:47:05.589Z,0
2018-09-27T03:48:15.447Z,0
2018-09-27T03:49:25.583Z,0
2018-09-27T03:50:35.217Z,0
2018-09-27T03:51:45.075Z,0
2018-09-27T03:52:55.225Z,0
2018-09-27T03:54:05.353Z,0
2018-09-27T03:55:15.213Z,0
2018-09-27T03:56:25.392Z,0
2018-09-27T03:57:35.254Z,0
2018-09-27T03:58:45.393Z,0
2018-09-27T03:59:55.287Z,0
2018-09-27T04:01:05.427Z,0
2018-09-27T04:02:15.336Z,0
2018-09-27T04:03:25.982Z,0
2018-09-27T04:04:35.942Z,0
2018-09-27T04:05:46.079Z,0
2018-09-27T04:06:56.214Z,0
2018-09-27T04:08:06.396Z,0
2018-09-27T04:09:15.978Z,0
2018-09-27T04:10:26.109Z,0
2018-09-27T04:11:36.240Z,0
2018-09-27T04:12:46.738Z,0
2018-09-27T04:13:56.890Z,0
2018-09-27T04:15:06.480Z,0
2018-09-27T04:16:16.612Z,0
2018-09-27T04:17:26.193Z,0
2018-09-27T04:18:35.772Z,0
2018-09-27T04:19:47.908Z,0
2018-09-27T04:20:58.045Z,0
2018-09-27T04:22:08.186Z,0
2018-09-27T04:23:18.324Z,0
2018-09-27T04:24:28.228Z,0
2018-09-27T04:25:38.411Z,0
2018-09-27T04:26:48.544Z,0
2018-09-27T04:27:59.030Z,0
2018-09-27T04:29:08.893Z,0
2018-09-27T04:30:18.753Z,0
2018-09-27T04:31:28.385Z,0
2018-09-27T04:32:38.527Z,0
2018-09-27T04:33:48.996Z,4
2018-09-27T04:34:59.355Z,0
2018-09-27T04:36:09.496Z,0
2018-09-27T04:37:19.415Z,4
2018-09-27T04:38:29.275Z,4
2018-09-27T04:39:39.474Z,4
2018-09-27T04:40:49.767Z,4
2018-09-27T04:41:59.663Z,4
2018-09-27T04:43:09.297Z,4
2018-09-27T04:44:19.439Z,4
2018-09-27T04:45:29.302Z,8
2018-09-27T04:46:39.608Z,8
2018-09-27T04:47:49.825Z,8
2018-09-27T04:48:59.735Z,12
2018-09-27T04:50:09.319Z,16
2018-09-27T04:51:19.167Z,16
2018-09-27T04:52:29.223Z,16
2018-09-27T04:53:38.985Z,24
2018-09-27T04:54:48.788Z,24
2018-09-27T04:55:58.814Z,32
2018-09-27T04:57:08.314Z,32
2018-09-27T04:58:18.072Z,40
2018-09-27T04:59:28.111Z,44
2018-09-27T05:00:38.193Z,52
2018-09-27T05:01:48.223Z,60
2018-09-27T05:02:57.713Z,68
2018-09-27T05:04:07.501Z,76
2018-09-27T05:05:17.002Z,80
2018-09-27T05:06:27.097Z,84
2018-09-27T05:07:37.104Z,96
2018-09-27T05:08:46.866Z,108
2018-09-27T05:09:56.629Z,120
2018-09-27T05:11:06.388Z,132
2018-09-27T05:12:16.472Z,140
2018-09-27T05:13:25.704Z,156
2018-09-27T05:14:35.735Z,168
2018-09-27T05:15:46.192Z,172
2018-09-27T05:16:55.663Z,184
2018-09-27T05:18:05.701Z,196
2018-09-27T05:19:15.464Z,208
2018-09-27T05:20:25.101Z,224
2018-09-27T05:21:34.523Z,232
2018-09-27T05:22:44.748Z,248
2018-09-27T05:23:54.841Z,268
2018-09-27T05:25:04.605Z,296
2018-09-27T05:26:14.097Z,320
2018-09-27T05:27:24.475Z,344
2018-09-27T05:28:34.029Z,372
2018-09-27T05:29:44.108Z,404
2018-09-27T05:30:54.150Z,432
2018-09-27T05:32:03.374Z,460
2018-09-27T05:33:13.399Z,488
2018-09-27T05:34:23.165Z,508
2018-09-27T05:35:33.255Z,516
2018-09-27T05:36:43.277Z,536
2018-09-27T05:37:53.308Z,564
2018-09-27T05:39:03.339Z,592
2018-09-27T05:40:13.366Z,628
2018-09-27T05:41:23.174Z,660
2018-09-27T05:42:32.938Z,692
2018-09-27T05:43:42.967Z,720
2018-09-27T05:44:52.998Z,744
2018-09-27T05:46:03.022Z,764
2018-09-27T05:47:12.837Z,800
2018-09-27T05:48:22.333Z,832
2018-09-27T05:49:32.360Z,864
2018-09-27T05:50:42.119Z,892
2018-09-27T05:51:51.875Z,920
2018-09-27T05:53:01.688Z,948
2018-09-27T05:54:11.453Z,992
2018-09-27T05:55:21.480Z,1032
2018-09-27T05:56:31.252Z,1068
2018-09-27T05:57:41.671Z,1112
2018-09-27T05:58:51.320Z,1172
2018-09-27T06:00:01.087Z,1232
2018-09-27T06:01:10.582Z,1296
2018-09-27T06:02:19.869Z,1320
2018-09-27T06:03:30.025Z,1320
2018-09-27T06:04:39.974Z,1364
2018-09-27T06:05:49.731Z,1404
2018-09-27T06:06:59.759Z,1476
2018-09-27T06:08:08.723Z,1524
2018-09-27T06:09:18.774Z,1512
2018-09-27T06:10:28.589Z,1504
2018-09-27T06:11:38.871Z,1524
2018-09-27T06:12:48.901Z,1528
2018-09-27T06:13:58.925Z,1524
2018-09-27T06:15:08.965Z,1520
2018-09-27T06:16:19.050Z,1568
2018-09-27T06:17:28.805Z,1660
2018-09-27T06:18:38.829Z,1716
2018-09-27T06:19:49.144Z,1704
2018-09-27T06:20:58.980Z,1660
2018-09-27T06:22:09.062Z,1660
2018-09-27T06:23:18.817Z,1732
2018-09-27T06:24:28.313Z,1816
2018-09-27T06:25:38.338Z,1892
2018-09-27T06:26:48.105Z,1952
2018-09-27T06:27:57.596Z,1960
2018-09-27T06:29:07.095Z,1972
2018-09-27T06:30:16.860Z,2028
2018-09-27T06:31:26.885Z,2164
2018-09-27T06:32:36.919Z,2300
2018-09-27T06:33:47.250Z,2344
2018-09-27T06:34:56.835Z,2324
2018-09-27T06:36:06.106Z,2296
2018-09-27T06:37:15.603Z,2256
2018-09-27T06:38:25.414Z,2284
2018-09-27T06:39:35.575Z,2304
2018-09-27T06:40:45.598Z,2292
2018-09-27T06:41:55.097Z,2268
2018-09-27T06:43:04.855Z,2180
2018-09-27T06:44:14.616Z,2104
2018-09-27T06:45:24.430Z,2188
2018-09-27T06:46:34.485Z,2448
2018-09-27T06:47:44.251Z,2760
2018-09-27T06:48:54.618Z,2904
2018-09-27T06:50:04.287Z,2912
2018-09-27T06:51:18.005Z,2824
2018-09-27T06:52:28.148Z,2660
2018-09-27T06:53:37.638Z,2636
2018-09-27T06:54:47.943Z,2700
2018-09-27T06:55:58.861Z,2848
2018-09-27T06:57:09.349Z,2948
2018-09-27T06:58:19.111Z,3008
2018-09-27T06:59:28.871Z,2976
2018-09-27T07:00:38.630Z,2860
2018-09-27T07:01:48.394Z,2816
2018-09-27T07:02:58.479Z,2880
2018-09-27T07:04:07.705Z,3000
2018-09-27T07:05:17.468Z,3044
2018-09-27T07:06:27.227Z,2980
2018-09-27T07:07:37.262Z,2920
2018-09-27T07:08:47.495Z,2936
2018-09-27T07:09:56.989Z,3016
2018-09-27T07:11:06.483Z,3100
2018-09-27T07:12:17.328Z,3052
2018-09-27T07:13:27.752Z,2936
2018-09-27T07:14:37.639Z,2764
2018-09-27T07:15:48.035Z,2528
2018-09-27T07:16:58.067Z,2472
2018-09-27T07:18:08.113Z,2484
2018-09-27T07:19:18.139Z,2520
2018-09-27T07:20:28.220Z,2528
2018-09-27T07:21:38.026Z,2500
2018-09-27T07:22:47.802Z,2444
2018-09-27T07:23:57.832Z,2404
2018-09-27T07:25:07.467Z,2364
2018-09-27T07:26:17.692Z,2336
2018-09-27T07:27:27.751Z,2336
2018-09-27T07:28:37.512Z,2332
2018-09-27T07:29:47.539Z,2272
2018-09-27T07:30:57.391Z,2240
2018-09-27T07:32:06.948Z,2360
2018-09-27T07:33:16.716Z,2524
2018-09-27T07:34:26.753Z,2568
2018-09-27T07:35:36.512Z,2544
2018-09-27T07:36:46.901Z,2520
2018-09-27T07:37:56.720Z,2488
2018-09-27T07:39:06.748Z,2464
2018-09-27T07:40:16.244Z,2484
2018-09-27T07:41:26.017Z,2404
2018-09-27T07:42:35.827Z,2236
2018-09-27T07:43:45.934Z,2120
2018-09-27T07:44:55.699Z,2080
2018-09-27T07:46:05.794Z,2084
2018-09-27T07:47:15.019Z,2040
2018-09-27T07:48:24.861Z,2072
2018-09-27T07:49:35.053Z,2132
2018-09-27T07:50:44.831Z,2140
2018-09-27T07:51:54.596Z,2108
2018-09-27T07:53:04.356Z,2092
2018-09-27T07:54:14.527Z,2112
2018-09-27T07:55:24.414Z,2124
2018-09-27T07:56:34.704Z,2092
2018-09-27T07:57:44.594Z,2084
2018-09-27T07:58:54.634Z,2104
2018-09-27T08:00:04.469Z,2104
2018-09-27T08:01:14.594Z,2140
2018-09-27T08:02:24.415Z,2232
2018-09-27T08:03:34.558Z,2460
2018-09-27T08:04:44.325Z,2720
2018-09-27T08:05:54.090Z,2896
2018-09-27T08:07:04.190Z,2884
2018-09-27T08:08:14.238Z,2724
2018-09-27T08:09:24.018Z,2676
2018-09-27T08:10:34.044Z,2584
2018-09-27T08:11:44.567Z,2556
2018-09-27T08:12:54.572Z,2404
2018-09-27T08:14:04.077Z,2352
2018-09-27T08:15:13.837Z,2320
2018-09-27T08:16:23.629Z,2272
2018-09-27T08:17:33.658Z,2296
2018-09-27T08:18:43.730Z,2412
2018-09-27T08:19:53.765Z,2380
2018-09-27T08:21:04.017Z,2376
2018-09-27T08:22:14.363Z,2332
2018-09-27T08:23:24.122Z,2308
2018-09-27T08:24:33.667Z,2284
2018-09-27T08:25:43.709Z,2244
2018-09-27T08:26:53.755Z,2208
2018-09-27T08:28:03.792Z,2176
2018-09-27T08:29:13.825Z,2180
2018-09-27T08:30:23.463Z,2152
2018-09-27T08:31:33.556Z,2112
2018-09-27T08:32:44.091Z,2148
2018-09-27T08:33:54.164Z,2116
2018-09-27T08:35:04.204Z,2148
2018-09-27T08:36:14.344Z,2196
2018-09-27T08:37:24.376Z,2256
2018-09-27T08:38:34.055Z,2300
2018-09-27T08:39:44.167Z,2232
2018-09-27T08:40:53.922Z,2256
2018-09-27T08:42:03.681Z,2392
2018-09-27T08:43:13.452Z,2496
2018-09-27T08:44:23.070Z,2596
2018-09-27T08:45:34.818Z,2640
2018-09-27T08:46:44.693Z,2736
2018-09-27T08:47:54.455Z,2868
2018-09-27T08:49:03.946Z,3092
2018-09-27T08:50:13.442Z,3380
2018-09-27T08:51:23.250Z,3424
2018-09-27T08:52:33.042Z,3452
2018-09-27T08:53:43.091Z,3632
2018-09-27T08:54:52.853Z,3656
2018-09-27T08:56:03.611Z,3400
2018-09-27T08:57:14.055Z,3208
2018-09-27T08:58:23.815Z,3272
2018-09-27T08:59:33.849Z,3332
2018-09-27T09:00:43.365Z,3388
2018-09-27T09:01:53.395Z,3388
2018-09-27T09:03:03.430Z,3336
2018-09-27T09:04:13.194Z,3200
2018-09-27T09:05:22.984Z,3112
2018-09-27T09:06:32.484Z,3108
2018-09-27T09:07:42.854Z,3064
2018-09-27T09:08:52.958Z,2956
2018-09-27T09:10:02.727Z,2868
2018-09-27T09:11:12.547Z,2784
2018-09-27T09:12:22.905Z,2724
2018-09-27T09:13:32.767Z,2752
2018-09-27T09:14:42.940Z,2860
2018-09-27T09:15:52.444Z,2936
2018-09-27T09:17:02.234Z,2956
2018-09-27T09:18:11.458Z,3016
2018-09-27T09:19:21.496Z,3116
2018-09-27T09:20:31.270Z,3128
2018-09-27T09:21:40.993Z,3124
2018-09-27T09:22:51.225Z,3140
2018-09-27T09:24:01.006Z,3084
2018-09-27T09:25:10.510Z,3016
2018-09-27T09:26:20.539Z,3020
2018-09-27T09:27:30.716Z,3084
2018-09-27T09:28:40.187Z,3128
2018-09-27T09:29:50.513Z,3044
2018-09-27T09:31:00.737Z,2900
2018-09-27T09:32:10.503Z,2760
2018-09-27T09:33:20.529Z,2620
2018-09-27T09:34:30.292Z,2552
2018-09-27T09:35:40.639Z,2504
2018-09-27T09:36:50.543Z,2472
2018-09-27T09:38:00.571Z,2484
2018-09-27T09:39:10.362Z,2516
2018-09-27T09:40:20.410Z,2560
2018-09-27T09:41:30.172Z,2612
2018-09-27T09:42:40.200Z,2600
2018-09-27T09:43:49.962Z,2568
2018-09-27T09:44:59.457Z,2608
2018-09-27T09:46:08.947Z,2612
2018-09-27T09:47:18.717Z,2556
2018-09-27T09:48:28.748Z,2520
2018-09-27T09:49:38.513Z,2560
2018-09-27T09:50:48.273Z,2580
2018-09-27T09:51:58.317Z,2612
2018-09-27T09:53:08.076Z,2636
2018-09-27T09:54:17.835Z,2612
2018-09-27T09:55:27.868Z,2572
2018-09-27T09:56:37.628Z,2560
2018-09-27T09:57:47.663Z,2616
2018-09-27T09:58:57.428Z,2680
2018-09-27T10:00:06.657Z,2704
2018-09-27T10:01:16.427Z,2708
2018-09-27T10:02:26.560Z,2664
2018-09-27T10:03:36.711Z,2680
2018-09-27T10:04:46.743Z,2728
2018-09-27T10:05:56.765Z,2704
2018-09-27T10:07:06.799Z,2636
2018-09-27T10:08:16.826Z,2708
2018-09-27T10:09:26.056Z,2728
2018-09-27T10:10:35.833Z,2688
2018-09-27T10:11:45.059Z,2696
2018-09-27T10:12:54.553Z,2716
2018-09-27T10:14:04.048Z,2692
2018-09-27T10:15:14.081Z,2648
2018-09-27T10:16:23.851Z,2552
2018-09-27T10:17:33.345Z,2476
2018-09-27T10:18:43.386Z,2424
2018-09-27T10:19:52.883Z,2360
2018-09-27T10:21:02.958Z,2352
2018-09-27T10:22:13.041Z,2376
2018-09-27T10:23:23.111Z,2412
2018-09-27T10:24:32.614Z,2452
2018-09-27T10:25:42.653Z,2488
2018-09-27T10:26:52.698Z,2464
2018-09-27T10:28:02.466Z,2420
2018-09-27T10:29:12.234Z,2388
2018-09-27T10:30:21.995Z,2388
2018-09-27T10:31:31.757Z,2416
2018-09-27T10:32:41.789Z,2420
2018-09-27T10:33:51.816Z,2412
2018-09-27T10:35:01.863Z,2432
2018-09-27T10:36:11.624Z,2432
2018-09-27T10:37:21.656Z,2424
2018-09-27T10:38:31.413Z,2480
2018-09-27T10:39:41.174Z,2544
2018-09-27T10:40:50.937Z,2528
2018-09-27T10:42:00.697Z,2452
2018-09-27T10:43:10.724Z,2360
2018-09-27T10:44:20.799Z,2292
2018-09-27T10:45:30.848Z,2256
2018-09-27T10:46:40.875Z,2228
2018-09-27T10:47:50.904Z,2168
2018-09-27T10:49:00.945Z,2120
2018-09-27T10:50:10.167Z,2076
2018-09-27T10:51:19.795Z,2060
2018-09-27T10:52:29.630Z,2060
2018-09-27T10:53:39.392Z,2076
2018-09-27T10:54:49.168Z,2092
2018-09-27T10:55:58.390Z,2100
2018-09-27T10:57:08.064Z,2080
2018-09-27T10:58:18.197Z,2020
2018-09-27T10:59:28.261Z,1964
2018-09-27T11:00:38.386Z,1952
2018-09-27T11:01:48.148Z,1916
2018-09-27T11:02:57.916Z,1864
2018-09-27T11:04:07.237Z,1848
2018-09-27T11:05:17.459Z,1832
2018-09-27T11:06:26.957Z,1812
2018-09-27T11:07:36.996Z,1820
2018-09-27T11:08:46.500Z,1824
2018-09-27T11:09:56.263Z,1796
2018-09-27T11:11:06.347Z,1764
2018-09-27T11:12:15.989Z,1736
2018-09-27T11:13:25.801Z,1692
2018-09-27T11:14:35.566Z,1640
2018-09-27T11:15:45.600Z,1580
2018-09-27T11:16:55.636Z,1656
2018-09-27T11:18:04.856Z,1680
2018-09-27T11:19:14.719Z,1688
2018-09-27T11:20:24.214Z,1672
2018-09-27T11:21:33.980Z,1648
2018-09-27T11:22:44.011Z,1664
2018-09-27T11:23:53.795Z,1684
2018-09-27T11:25:03.924Z,1680
2018-09-27T11:26:13.686Z,1676
2018-09-27T11:27:23.203Z,1700
2018-09-27T11:28:33.321Z,1740
2018-09-27T11:29:43.360Z,1736
2018-09-27T11:30:53.500Z,1708
2018-09-27T11:32:03.544Z,1676
2018-09-27T11:33:13.200Z,1740
2018-09-27T11:34:22.965Z,1864
2018-09-27T11:35:32.990Z,1896
2018-09-27T11:36:42.277Z,1924
2018-09-27T11:37:52.307Z,1984
2018-09-27T11:39:02.088Z,2024
2018-09-27T11:40:11.592Z,2064
2018-09-27T11:41:21.617Z,2108
2018-09-27T11:42:31.983Z,2136
2018-09-27T11:43:41.760Z,2148
2018-09-27T11:44:51.519Z,2152
2018-09-27T11:46:01.281Z,2188
2018-09-27T11:47:11.310Z,2240
2018-09-27T11:48:21.171Z,2268
2018-09-27T11:49:31.363Z,2264
2018-09-27T11:50:41.224Z,2272
2018-09-27T11:51:50.985Z,2316
2018-09-27T11:53:00.481Z,2324
2018-09-27T11:54:10.403Z,2280
2018-09-27T11:55:20.614Z,2260
2018-09-27T11:56:30.395Z,2264
2018-09-27T11:57:40.423Z,2280
2018-09-27T11:58:50.484Z,2320
2018-09-27T12:00:00.694Z,2364
2018-09-27T12:01:10.751Z,2324
2018-09-27T12:02:20.806Z,2264
2018-09-27T12:03:30.846Z,2236
2018-09-27T12:04:40.871Z,2260
2018-09-27T12:05:50.781Z,2296
2018-09-27T12:07:00.904Z,2352
2018-09-27T12:08:10.666Z,2376
2018-09-27T12:09:20.692Z,2384
2018-09-27T12:10:30.455Z,2412
2018-09-27T12:11:40.046Z,2484
2018-09-27T12:12:49.539Z,2556
2018-09-27T12:13:59.034Z,2588
2018-09-27T12:15:09.070Z,2580
2018-09-27T12:16:19.114Z,2588
2018-09-27T12:17:29.361Z,2632
2018-09-27T12:18:39.192Z,2720
2018-09-27T12:19:49.396Z,2820
2018-09-27T12:20:59.465Z,2876
2018-09-27T12:22:09.242Z,2884
2018-09-27T12:23:19.728Z,2880
2018-09-27T12:24:29.485Z,2864
2018-09-27T12:25:39.806Z,2868
2018-09-27T12:26:49.638Z,2904
2018-09-27T12:27:59.395Z,2924
2018-09-27T12:29:08.677Z,2916
2018-09-27T12:30:18.446Z,2880
2018-09-27T12:31:28.472Z,2832
2018-09-27T12:32:38.504Z,2768
2018-09-27T12:33:48.543Z,2744
2018-09-27T12:34:58.199Z,2740
2018-09-27T12:36:08.240Z,2736
2018-09-27T12:37:17.732Z,2740
2018-09-27T12:38:27.768Z,2768
2018-09-27T12:39:38.370Z,2792
2018-09-27T12:40:48.915Z,2832
2018-09-27T12:41:59.919Z,2864
2018-09-27T12:43:10.166Z,2864
2018-09-27T12:44:20.204Z,2860
2018-09-27T12:45:30.446Z,2884
2018-09-27T12:46:40.828Z,2952
2018-09-27T12:47:50.724Z,3056
2018-09-27T12:49:00.357Z,3140
2018-09-27T12:50:09.565Z,3184
2018-09-27T12:51:20.140Z,3216
2018-09-27T12:52:31.077Z,3288
2018-09-27T12:53:41.215Z,3356
2018-09-27T12:54:50.714Z,3428
2018-09-27T12:56:00.955Z,3460
2018-09-27T12:57:10.672Z,3460
2018-09-27T12:58:20.719Z,3504
2018-09-27T12:59:30.771Z,3576
2018-09-27T13:00:40.539Z,3660
2018-09-27T13:01:50.781Z,3812
2018-09-27T13:03:01.519Z,3956
2018-09-27T13:04:10.680Z,4028
2018-09-27T13:05:20.788Z,4132
2018-09-27T13:06:30.281Z,4304
2018-09-27T13:07:39.782Z,4412
2018-09-27T13:08:49.738Z,4492
2018-09-27T13:10:00.735Z,4364
2018-09-27T13:11:10.177Z,4200
2018-09-27T13:12:20.097Z,4068
2018-09-27T13:13:31.211Z,4092
2018-09-27T13:14:41.659Z,4300
2018-09-27T13:15:51.471Z,4276
2018-09-27T13:17:01.614Z,4156
2018-09-27T13:18:11.683Z,4212
2018-09-27T13:19:21.861Z,4408
2018-09-27T13:20:32.341Z,4556
2018-09-27T13:21:42.470Z,4444
2018-09-27T13:22:52.759Z,4296
2018-09-27T13:24:02.818Z,4420
2018-09-27T13:25:12.675Z,4736
2018-09-27T13:26:22.702Z,4852
2018-09-27T13:27:32.834Z,4560
2018-09-27T13:28:42.550Z,4280
2018-09-27T13:29:52.395Z,4152
2018-09-27T13:31:02.613Z,4112
2018-09-27T13:32:12.999Z,4160
2018-09-27T13:33:23.083Z,4164
2018-09-27T13:34:32.851Z,4172
2018-09-27T13:35:42.341Z,4156
2018-09-27T13:36:51.643Z,4084
2018-09-27T13:38:01.711Z,4004
2018-09-27T13:39:12.010Z,3948
2018-09-27T13:40:21.818Z,3904
2018-09-27T13:41:31.578Z,3844
2018-09-27T13:42:41.073Z,3740
2018-09-27T13:43:50.599Z,3660
2018-09-27T13:45:00.539Z,3596
2018-09-27T13:46:10.429Z,3648
2018-09-27T13:47:20.460Z,3644
2018-09-27T13:48:30.224Z,3568
2018-09-27T13:49:40.263Z,3500
2018-09-27T13:50:50.093Z,3436
2018-09-27T13:51:59.657Z,3304
2018-09-27T13:53:08.614Z,3136
2018-09-27T13:54:18.371Z,3016
2018-09-27T13:55:28.401Z,2836
2018-09-27T13:56:38.497Z,2708
2018-09-27T13:57:48.536Z,2768
2018-09-27T13:58:58.566Z,2808
2018-09-27T14:00:08.064Z,2924
2018-09-27T14:01:17.562Z,3220
2018-09-27T14:02:27.382Z,3776
2018-09-27T14:03:37.144Z,4256
2018-09-27T14:04:46.919Z,4304
2018-09-27T14:05:56.680Z,4316
2018-09-27T14:07:06.176Z,4216
2018-09-27T14:08:15.724Z,4004
2018-09-27T14:09:24.956Z,3884
2018-09-27T14:10:34.998Z,3968
2018-09-27T14:11:45.030Z,4008
2018-09-27T14:12:55.065Z,4008
2018-09-27T14:14:05.146Z,3972
2018-09-27T14:15:14.658Z,4012
2018-09-27T14:16:24.425Z,4016
2018-09-27T14:17:34.474Z,3964
2018-09-27T14:18:44.518Z,3788
2018-09-27T14:19:54.335Z,3484
2018-09-27T14:21:03.835Z,3216
2018-09-27T14:22:13.874Z,2996
2018-09-27T14:23:23.636Z,2852
2018-09-27T14:24:32.863Z,2760
2018-09-27T14:25:42.191Z,2660
2018-09-27T14:26:52.145Z,2596
2018-09-27T14:28:01.369Z,2552
2018-09-27T14:29:11.407Z,2700
2018-09-27T14:30:21.448Z,2980
2018-09-27T14:31:31.255Z,3028
2018-09-27T14:32:40.751Z,2992
2018-09-27T14:33:50.787Z,3096
2018-09-27T14:35:00.544Z,3028
2018-09-27T14:36:10.323Z,2888
2018-09-27T14:37:20.417Z,2936
2018-09-27T14:38:30.184Z,3104
2018-09-27T14:39:40.229Z,3188
2018-09-27T14:40:49.809Z,3140
2018-09-27T14:41:59.981Z,3060
2018-09-27T14:43:10.069Z,3064
2018-09-27T14:44:19.849Z,3128
2018-09-27T14:45:29.078Z,3240
2018-09-27T14:46:39.112Z,3416
2018-09-27T14:47:48.839Z,3588
2018-09-27T14:48:58.839Z,3784
2018-09-27T14:50:08.825Z,3980
2018-09-27T14:51:18.665Z,4112
2018-09-27T14:52:28.752Z,4172
2018-09-27T14:53:39.059Z,4144
2018-09-27T14:54:49.201Z,3944
2018-09-27T14:55:59.102Z,3668
2018-09-27T14:57:08.957Z,3504
2018-09-27T14:58:18.725Z,3140
2018-09-27T14:59:28.916Z,2696
2018-09-27T15:00:39.335Z,2536
2018-09-27T15:01:49.513Z,2688
2018-09-27T15:02:59.281Z,2980
2018-09-27T15:04:09.063Z,2952
2018-09-27T15:05:19.096Z,2444
2018-09-27T15:06:28.988Z,2160
2018-09-27T15:07:38.845Z,2104
2018-09-27T15:08:48.612Z,2256
2018-09-27T15:09:58.771Z,2476
2018-09-27T15:11:09.056Z,2964
2018-09-27T15:12:18.566Z,3484
2018-09-27T15:13:28.075Z,4220
2018-09-27T15:14:38.175Z,4728
2018-09-27T15:15:48.013Z,4532
2018-09-27T15:16:57.778Z,4320
2018-09-27T15:18:07.373Z,3884
2018-09-27T15:19:17.411Z,3216
2018-09-27T15:20:27.455Z,2892
2018-09-27T15:21:37.537Z,2760
2018-09-27T15:22:47.973Z,2852
2018-09-27T15:23:58.061Z,3004
2018-09-27T15:25:07.571Z,3256
2018-09-27T15:26:17.604Z,3512
2018-09-27T15:27:27.655Z,3472
2018-09-27T15:28:37.177Z,3364
2018-09-27T15:29:46.989Z,3364
2018-09-27T15:30:56.328Z,3264
2018-09-27T15:32:06.104Z,3148
2018-09-27T15:33:16.131Z,3044
2018-09-27T15:34:26.158Z,3228
2018-09-27T15:35:36.249Z,3336
2018-09-27T15:36:46.299Z,3184
2018-09-27T15:37:56.343Z,3096
2018-09-27T15:39:06.397Z,2936
2018-09-27T15:40:16.211Z,2808
2018-09-27T15:41:25.727Z,2540
2018-09-27T15:42:35.498Z,2160
2018-09-27T15:43:45.017Z,1924
2018-09-27T15:44:55.053Z,1980
2018-09-27T15:46:04.815Z,2164
2018-09-27T15:47:14.627Z,2312
2018-09-27T15:48:24.665Z,2436
2018-09-27T15:49:34.701Z,2472
2018-09-27T15:50:44.740Z,2296
2018-09-27T15:51:54.777Z,2100
2018-09-27T15:53:04.590Z,2140
2018-09-27T15:54:14.362Z,2244
2018-09-27T15:55:24.132Z,2200
2018-09-27T15:56:34.176Z,2168
2018-09-27T15:57:43.948Z,2320
2018-09-27T15:58:54.004Z,2576
2018-09-27T16:00:04.044Z,2768
2018-09-27T16:01:14.081Z,2972
2018-09-27T16:02:24.110Z,3116